Singapore, Singapore

12:33 PM SGT on December 20, 2014 (GMT +0800)
Changi | Change Station
CLOSE
Current Station
Airport
Location: Singapore,
Elevation: 52 ft
Nearby Weather Stations

Elev 52 ft 1.37 °N, 103.98 °E | Updated 3 minutes ago

Scattered Clouds
Scattered Clouds
86 °F
Feels Like 97 °F
N
4
Wind Variable Wind from NNW

Today
High -- | Low -- °F
--% Chance of Precip.
Yesterday
High -- | Low -- °F
Precip. -- in
7:00 AM 7:02 PM
Waning Crescent, 4% visible
Pressure 29.83 in
Visibility 6.2 miles
Clouds Scattered Clouds 2000 ft
Scattered Clouds 15000 ft
Heat Index 97 °F
Dew Point 77 °F
Humidity 74%
Rainfall 0.00 in
Snow Depth Not available.
UV 11 out of 12
Pollen Not available.
Air Quality Not available.
Flu Activity Not available.
METAR WSSS 200430Z 34003KT 290V040 9999 SCT020TCU SCT150 30/25 Q1010 NOSIG

More Conditions Fewer Conditions

Pressure 29.83 in
Visibility 6.2 miles
Clouds Scattered Clouds 2000 ft
Scattered Clouds 15000 ft
Heat Index 97 °F
Dew Point 77 °F
Humidity 74%
Rainfall 0.00 in
Snow Depth Not available.
UV 11 out of 12
Pollen Not available.
Air Quality Not available.
Flu Activity Not available.
METAR WSSS 200430Z 34003KT 290V040 9999 SCT020TCU SCT150 30/25 Q1010 NOSIG

More Conditions Fewer Conditions

10-Day Weather Forecast

Almanac

Astronomy

Dec. 20, 2014 Rise Set
Actual Time
Civil Twilight
Nautical Twilight
Astronomical Twilight
Moon
Length of Visible Light
Length of Day
Tomorrow will be .
, % of the Moon is Illuminated

Today's Extremes

Country Highs Country Lows

Community

WunderPhotos

Upload Photos

1,779,130 photos uploaded!

WunderBlogs® & News

Nearby

Air Quality

  Air Quality AQ Index Pollutant
Not available.

Snow Depth

Station Depth Elevation

Earthquake Activity

City Distance Mag. Time & Date
Minimum magnitude displayed is 2.5.

Coastal Water Temperatures

Place Temperature

Nearby Weather Stations